createdAt,value
2022-12-23T00:00:08.314Z,8.00
2022-12-23T00:03:14.951Z,8.10
2022-12-23T00:06:01.662Z,7.20
2022-12-23T00:08:48.211Z,6.70
2022-12-23T00:11:34.663Z,6.90
2022-12-23T00:14:39.671Z,7.90
2022-12-23T00:17:26.187Z,7.60
2022-12-23T00:20:13.838Z,7.80
2022-12-23T00:23:06.378Z,8.40
2022-12-23T00:25:52.870Z,8.20
2022-12-23T00:28:39.294Z,10.10
2022-12-23T00:31:25.973Z,13.70
2022-12-23T00:34:13.083Z,12.70
2022-12-23T00:36:59.495Z,10.10
2022-12-23T00:40:06.748Z,10.70
2022-12-23T00:42:53.662Z,13.60
2022-12-23T00:45:40.287Z,11.00
2022-12-23T00:48:45.347Z,9.60
2022-12-23T00:51:32.121Z,8.30
2022-12-23T00:54:18.455Z,6.90
2022-12-23T00:57:05.013Z,9.40
2022-12-23T00:59:51.249Z,14.60
2022-12-23T01:02:56.806Z,12.70
2022-12-23T01:05:43.409Z,11.40
2022-12-23T01:08:29.793Z,11.90
2022-12-23T01:11:16.234Z,10.30
2022-12-23T01:14:02.467Z,9.30
2022-12-23T01:16:49.065Z,15.40
2022-12-23T01:19:35.528Z,12.40
2022-12-23T01:22:21.799Z,10.40
2022-12-23T01:25:08.408Z,6.10
2022-12-23T01:27:54.534Z,6.40
2022-12-23T01:30:40.863Z,8.00
2022-12-23T01:33:27.344Z,7.00
2022-12-23T01:36:13.742Z,5.60
2022-12-23T01:39:00.170Z,4.00
2022-12-23T01:42:05.050Z,6.10
2022-12-23T01:45:01.409Z,5.30
2022-12-23T01:50:53.429Z,8.80
2022-12-23T01:53:45.401Z,11.30
2022-12-23T01:56:38.889Z,9.30
2022-12-23T01:59:44.046Z,7.20
2022-12-23T02:02:49.506Z,7.20
2022-12-23T02:05:35.687Z,6.70
2022-12-23T02:08:40.654Z,6.30
2022-12-23T02:11:51.476Z,8.10
2022-12-23T02:15:05.538Z,6.70
2022-12-23T02:21:05.986Z,5.50
2022-12-23T02:24:25.624Z,5.10
2022-12-23T02:27:22.547Z,5.70
2022-12-23T02:30:30.205Z,5.60
2022-12-23T02:33:57.869Z,4.30
2022-12-23T02:36:56.309Z,5.50
2022-12-23T02:39:47.108Z,4.70
2022-12-23T02:42:43.496Z,4.50
2022-12-23T02:45:29.618Z,5.60
2022-12-23T02:48:34.503Z,5.00
2022-12-23T02:51:22.333Z,5.50
2022-12-23T02:54:11.472Z,5.10
2022-12-23T02:56:58.432Z,5.30
2022-12-23T02:59:46.687Z,5.10
2022-12-23T03:02:34.395Z,5.30
2022-12-23T03:05:27.084Z,5.40
2022-12-23T03:08:18.995Z,5.70
2022-12-23T03:11:06.326Z,5.60
2022-12-23T03:14:07.020Z,5.30
2022-12-23T03:17:20.928Z,6.20
2022-12-23T03:20:17.086Z,6.20
2022-12-23T03:23:19.202Z,5.30
2022-12-23T03:26:16.430Z,6.00
2022-12-23T03:29:10.219Z,6.10
2022-12-23T03:31:58.324Z,5.40
2022-12-23T03:34:46.502Z,5.90
2022-12-23T03:37:33.963Z,5.10
2022-12-23T03:40:23.396Z,5.10
2022-12-23T03:43:30.974Z,5.20
2022-12-23T03:46:19.701Z,5.40
2022-12-23T03:49:08.982Z,5.10
2022-12-23T03:51:58.714Z,5.30
2022-12-23T03:54:55.575Z,3.80
2022-12-23T03:57:45.042Z,4.90
2022-12-23T04:00:34.995Z,5.30
2022-12-23T04:03:34.638Z,5.70
2022-12-23T04:06:21.019Z,4.80
2022-12-23T04:09:07.004Z,5.30
2022-12-23T04:11:53.692Z,4.70
2022-12-23T04:14:45.622Z,3.40
2022-12-23T04:17:32.872Z,5.60
2022-12-23T04:20:19.693Z,5.00
2022-12-23T04:23:06.033Z,5.70
2022-12-23T04:25:52.800Z,4.40
2022-12-23T04:28:38.830Z,5.30
2022-12-23T04:31:25.459Z,6.40
2022-12-23T04:34:11.795Z,5.30
2022-12-23T04:36:57.988Z,5.60
2022-12-23T04:39:44.406Z,6.10
2022-12-23T04:42:30.980Z,3.80
2022-12-23T04:45:17.410Z,5.20
2022-12-23T04:48:03.713Z,4.40
2022-12-23T04:50:50.226Z,4.40
2022-12-23T04:53:37.112Z,4.40
2022-12-23T04:56:23.421Z,5.80
2022-12-23T04:59:10.553Z,5.20
2022-12-23T05:01:58.011Z,5.60
2022-12-23T05:04:44.621Z,5.20
2022-12-23T05:07:31.270Z,5.20
2022-12-23T05:10:17.576Z,5.50
2022-12-23T05:13:04.040Z,5.50
2022-12-23T05:15:50.986Z,4.00
2022-12-23T05:18:37.525Z,3.60
2022-12-23T05:21:23.875Z,6.10
2022-12-23T05:24:10.177Z,6.00
2022-12-23T05:27:00.048Z,5.70
2022-12-23T05:29:46.969Z,5.20
2022-12-23T05:32:33.492Z,5.60
2022-12-23T05:35:19.962Z,5.00
2022-12-23T05:38:06.388Z,6.00
2022-12-23T05:40:52.523Z,4.80
2022-12-23T05:43:38.855Z,6.30
2022-12-23T05:46:27.046Z,5.70
2022-12-23T05:49:13.858Z,5.70
2022-12-23T05:52:00.444Z,5.40
2022-12-23T05:54:47.126Z,6.40
2022-12-23T05:57:33.692Z,4.70
2022-12-23T06:00:20.610Z,5.00
2022-12-23T06:03:07.318Z,6.20
2022-12-23T06:05:54.600Z,5.90
2022-12-23T06:08:40.972Z,6.00
2022-12-23T06:11:27.910Z,5.80
2022-12-23T06:14:14.434Z,4.50
2022-12-23T06:17:00.647Z,6.00
2022-12-23T06:19:47.496Z,5.40
2022-12-23T06:22:33.959Z,6.40
2022-12-23T06:25:20.254Z,5.90
2022-12-23T06:28:08.061Z,6.70
2022-12-23T06:30:57.408Z,8.40
2022-12-23T06:33:44.240Z,7.80
2022-12-23T06:36:30.554Z,6.40
2022-12-23T06:39:16.812Z,5.60
2022-12-23T06:42:03.320Z,5.80
2022-12-23T06:44:49.905Z,4.00
2022-12-23T06:47:36.585Z,4.70
2022-12-23T06:50:23.006Z,7.20
2022-12-23T06:53:09.395Z,6.30
2022-12-23T06:56:01.850Z,6.70
2022-12-23T06:58:48.518Z,5.60
2022-12-23T07:01:34.724Z,6.20
2022-12-23T07:04:21.487Z,5.10
2022-12-23T07:07:07.988Z,5.80
2022-12-23T07:09:54.468Z,4.30
2022-12-23T07:12:44.787Z,5.60
2022-12-23T07:15:33.532Z,5.10
2022-12-23T07:18:22.021Z,5.60
2022-12-23T07:21:16.317Z,5.90
2022-12-23T07:24:07.244Z,7.60
2022-12-23T07:26:55.916Z,6.20
2022-12-23T07:29:42.463Z,7.50
2022-12-23T07:32:28.997Z,7.20
2022-12-23T07:35:15.395Z,4.90
2022-12-23T07:38:01.739Z,4.40
2022-12-23T07:40:49.127Z,4.80
2022-12-23T07:43:35.351Z,5.90
2022-12-23T07:46:21.628Z,4.90
2022-12-23T07:49:08.295Z,5.60
2022-12-23T07:51:54.513Z,6.00
2022-12-23T07:54:40.823Z,4.50
2022-12-23T07:57:27.279Z,3.90
2022-12-23T08:00:14.291Z,3.80
2022-12-23T08:03:00.896Z,3.40
2022-12-23T08:05:47.568Z,2.80
2022-12-23T08:08:33.975Z,3.10
2022-12-23T08:11:20.154Z,10.10
2022-12-23T08:14:07.111Z,4.00
2022-12-23T08:16:53.505Z,4.10
2022-12-23T08:19:39.823Z,3.90
2022-12-23T08:22:26.059Z,3.50
2022-12-23T08:25:12.591Z,3.40
2022-12-23T08:27:59.082Z,2.70
2022-12-23T08:30:45.810Z,2.40
2022-12-23T08:33:32.748Z,4.00
2022-12-23T08:36:23.930Z,2.80
2022-12-23T08:39:10.990Z,2.40
2022-12-23T08:41:57.096Z,2.90
2022-12-23T08:44:43.348Z,2.20
2022-12-23T08:47:29.666Z,1.90
2022-12-23T08:50:15.918Z,2.60
2022-12-23T08:53:02.159Z,3.10
2022-12-23T08:55:48.470Z,4.20
2022-12-23T08:58:38.738Z,4.30
2022-12-23T09:01:26.817Z,5.80
2022-12-23T09:04:13.241Z,2.60
2022-12-23T09:06:59.564Z,4.10
2022-12-23T09:09:45.841Z,3.90
2022-12-23T09:12:32.282Z,5.60
2022-12-23T09:15:18.839Z,5.60
2022-12-23T09:18:05.991Z,3.00
2022-12-23T09:21:03.099Z,3.90
2022-12-23T09:23:49.694Z,3.60
2022-12-23T09:26:36.211Z,4.60
2022-12-23T09:29:23.198Z,3.30
2022-12-23T09:32:09.727Z,2.70
2022-12-23T09:34:57.508Z,1.10
2022-12-23T09:37:44.237Z,2.80
2022-12-23T09:40:32.397Z,2.60
2022-12-23T09:43:34.812Z,2.40
2022-12-23T09:46:25.539Z,4.10
2022-12-23T09:49:13.157Z,3.60
2022-12-23T09:52:03.984Z,2.80
2022-12-23T09:54:52.792Z,2.10
2022-12-23T09:58:01.118Z,1.70
2022-12-23T10:00:56.976Z,2.30
2022-12-23T10:04:15.287Z,2.80
2022-12-23T10:07:04.303Z,2.30
2022-12-23T10:09:51.423Z,3.40
2022-12-23T10:12:42.324Z,3.60
2022-12-23T10:18:28.684Z,2.70
2022-12-23T10:21:42.254Z,2.10
2022-12-23T10:24:37.971Z,3.00
2022-12-23T10:27:32.273Z,2.30
2022-12-23T10:30:54.007Z,2.40
2022-12-23T10:33:36.663Z,3.60
2022-12-23T10:36:41.145Z,2.20
2022-12-23T10:39:42.381Z,2.70
2022-12-23T10:42:34.074Z,6.80
2022-12-23T10:45:41.399Z,5.70
2022-12-23T10:48:40.032Z,2.30
2022-12-23T10:51:34.380Z,2.00
2022-12-23T10:54:31.026Z,3.20
2022-12-23T10:57:18.145Z,2.40
2022-12-23T11:00:17.210Z,2.30
2022-12-23T11:03:13.537Z,3.20
2022-12-23T11:06:00.006Z,2.50
2022-12-23T11:08:46.071Z,2.10
2022-12-23T11:11:54.328Z,1.50
2022-12-23T11:14:41.504Z,1.70
2022-12-23T11:17:29.705Z,1.30
2022-12-23T11:20:17.772Z,1.70
2022-12-23T11:23:06.140Z,1.50
2022-12-23T11:26:13.429Z,2.00
2022-12-23T11:29:07.655Z,1.80
2022-12-23T11:31:54.171Z,1.80
2022-12-23T11:34:40.405Z,2.60
2022-12-23T11:37:47.540Z,2.60
2022-12-23T11:40:36.091Z,1.80
2022-12-23T11:43:23.415Z,2.00
2022-12-23T11:46:35.619Z,3.10
2022-12-23T11:49:31.587Z,3.20
2022-12-23T11:52:19.687Z,4.20
2022-12-23T11:55:07.170Z,2.90
2022-12-23T11:57:53.755Z,3.50
2022-12-23T12:00:41.300Z,2.10
2022-12-23T12:03:30.931Z,2.40
2022-12-23T12:06:17.199Z,3.10
2022-12-23T12:09:03.795Z,2.90
2022-12-23T12:11:55.132Z,4.30
2022-12-23T12:14:46.936Z,2.80
2022-12-23T12:17:40.726Z,2.00
2022-12-23T12:20:44.333Z,2.30
2022-12-23T12:24:08.134Z,2.80
2022-12-23T12:27:01.386Z,2.20
2022-12-23T12:29:55.629Z,3.00
2022-12-23T12:33:01.059Z,2.00
2022-12-23T12:35:53.607Z,3.10
2022-12-23T12:38:40.702Z,3.50
2022-12-23T12:41:34.507Z,5.30
2022-12-23T12:44:32.135Z,3.10
2022-12-23T12:50:34.083Z,3.50
2022-12-23T12:53:21.146Z,3.40
2022-12-23T12:56:12.534Z,2.20
2022-12-23T12:58:58.886Z,2.70
2022-12-23T13:01:53.144Z,2.40
2022-12-23T13:05:03.508Z,2.60
2022-12-23T13:08:08.970Z,2.70
2022-12-23T13:10:57.780Z,2.40
2022-12-23T13:14:26.318Z,2.40
2022-12-23T13:17:21.015Z,2.80
2022-12-23T13:20:19.937Z,2.70
2022-12-23T13:23:42.146Z,5.00
2022-12-23T13:26:40.521Z,3.60
2022-12-23T13:29:42.355Z,1.80
2022-12-23T13:35:23.681Z,2.20
2022-12-23T13:38:50.054Z,2.70
2022-12-23T13:41:40.764Z,2.90
2022-12-23T13:44:28.070Z,2.80
2022-12-23T13:47:21.243Z,2.20
2022-12-23T13:50:12.644Z,2.60
2022-12-23T13:53:16.304Z,3.20
2022-12-23T13:56:11.852Z,3.40
2022-12-23T13:58:58.596Z,8.10
2022-12-23T14:01:47.770Z,7.30
2022-12-23T14:04:59.050Z,5.40
2022-12-23T14:07:45.308Z,5.00
2022-12-23T14:10:32.075Z,5.20
2022-12-23T14:13:18.712Z,2.30
2022-12-23T14:16:11.082Z,2.80
2022-12-23T14:19:12.472Z,5.60
2022-12-23T14:22:11.866Z,7.60
2022-12-23T14:25:29.488Z,7.30
2022-12-23T14:28:26.653Z,5.80
2022-12-23T14:31:29.205Z,5.00
2022-12-23T14:34:18.567Z,10.80
2022-12-23T14:37:24.853Z,10.30
2022-12-23T14:40:39.563Z,13.20
2022-12-23T14:43:27.221Z,15.10
2022-12-23T14:46:43.278Z,15.60
2022-12-23T14:49:41.192Z,8.40
2022-12-23T14:52:48.077Z,8.60
2022-12-23T14:55:40.197Z,8.10
2022-12-23T14:58:30.015Z,10.00
2022-12-23T15:01:37.271Z,9.70
2022-12-23T15:04:26.353Z,11.90
2022-12-23T15:07:27.771Z,15.00
2022-12-23T15:10:22.514Z,8.60
2022-12-23T15:13:11.293Z,5.10
2022-12-23T15:16:01.817Z,4.10
2022-12-23T15:18:55.697Z,5.00
2022-12-23T15:21:44.906Z,3.40
2022-12-23T15:24:33.442Z,3.30
2022-12-23T15:27:28.740Z,2.30
2022-12-23T15:30:16.272Z,2.70
2022-12-23T15:33:21.471Z,3.00
2022-12-23T15:36:12.750Z,2.90
2022-12-23T15:39:00.359Z,3.90
2022-12-23T15:41:47.354Z,3.90
2022-12-23T15:44:36.677Z,3.50
2022-12-23T15:47:30.292Z,3.50
2022-12-23T15:50:17.757Z,1.90
2022-12-23T15:53:05.411Z,3.80
2022-12-23T15:55:51.535Z,3.30
2022-12-23T15:58:39.384Z,4.00
2022-12-23T16:01:26.480Z,5.00
2022-12-23T16:04:18.709Z,6.20
2022-12-23T16:07:05.315Z,5.80
2022-12-23T16:09:53.688Z,5.80
2022-12-23T16:12:40.005Z,4.60
2022-12-23T16:15:27.565Z,2.90
2022-12-23T16:18:19.572Z,4.70
2022-12-23T16:21:06.189Z,3.60
2022-12-23T16:23:52.506Z,4.20
2022-12-23T16:27:01.299Z,4.20
2022-12-23T16:30:07.730Z,4.60
2022-12-23T16:32:55.625Z,7.70
2022-12-23T16:35:42.775Z,4.70
2022-12-23T16:38:29.094Z,5.80
2022-12-23T16:41:15.500Z,5.90
2022-12-23T16:44:01.881Z,7.10
2022-12-23T16:46:49.313Z,5.20
2022-12-23T16:49:35.948Z,5.30
2022-12-23T16:52:22.605Z,4.90
2022-12-23T16:55:14.655Z,6.10
2022-12-23T16:58:00.937Z,10.70
2022-12-23T17:00:47.519Z,12.20
2022-12-23T17:03:33.741Z,12.80
2022-12-23T17:06:20.085Z,16.10
2022-12-23T17:09:07.177Z,17.30
2022-12-23T17:11:53.843Z,21.30
2022-12-23T17:14:40.391Z,18.60
2022-12-23T17:17:26.997Z,24.10
2022-12-23T17:20:13.076Z,22.20
2022-12-23T17:22:59.379Z,22.30
2022-12-23T17:25:45.996Z,10.90
2022-12-23T17:28:32.580Z,9.10
2022-12-23T17:31:26.250Z,10.80
2022-12-23T17:34:17.569Z,11.20
2022-12-23T17:37:11.974Z,10.60
2022-12-23T17:39:58.246Z,14.90
2022-12-23T17:42:44.641Z,12.90
2022-12-23T17:45:31.928Z,12.50
2022-12-23T17:48:23.101Z,15.30
2022-12-23T17:51:15.528Z,20.00
2022-12-23T17:54:02.235Z,20.30
2022-12-23T17:56:48.621Z,22.90
2022-12-23T17:59:35.217Z,26.70
2022-12-23T18:02:26.650Z,24.80
2022-12-23T18:05:25.968Z,24.50
2022-12-23T18:08:12.750Z,20.70
2022-12-23T18:10:59.411Z,23.20
2022-12-23T18:13:47.139Z,25.70
2022-12-23T18:16:33.675Z,23.40
2022-12-23T18:19:20.550Z,17.80
2022-12-23T18:22:06.859Z,28.10
2022-12-23T18:24:58.937Z,25.80
2022-12-23T18:27:45.920Z,18.50
2022-12-23T18:30:32.159Z,14.70
2022-12-23T18:33:18.340Z,14.70
2022-12-23T18:36:05.189Z,17.30
2022-12-23T18:38:52.636Z,15.50
2022-12-23T18:41:40.055Z,13.50
2022-12-23T18:44:26.766Z,51.80
2022-12-23T18:47:13.065Z,54.30
2022-12-23T18:49:59.654Z,33.20
2022-12-23T18:52:46.707Z,26.80
2022-12-23T18:55:33.419Z,29.10
2022-12-23T18:58:19.617Z,28.90
2022-12-23T19:01:06.026Z,30.00
2022-12-23T19:03:52.421Z,33.50
2022-12-23T19:06:39.147Z,32.10
2022-12-23T19:09:25.382Z,27.30
2022-12-23T19:12:12.091Z,30.80
2022-12-23T19:14:58.623Z,26.90
2022-12-23T19:17:45.046Z,21.70
2022-12-23T19:20:31.270Z,23.60
2022-12-23T19:23:17.862Z,29.80
2022-12-23T19:26:06.301Z,21.10
2022-12-23T19:28:52.630Z,17.30
2022-12-23T19:31:39.539Z,11.20
2022-12-23T19:34:26.027Z,11.20
2022-12-23T19:37:12.520Z,11.40
2022-12-23T19:39:59.400Z,11.90
2022-12-23T19:42:45.921Z,10.30
2022-12-23T19:45:32.450Z,14.50
2022-12-23T19:48:18.941Z,16.30
2022-12-23T19:51:07.874Z,17.20
2022-12-23T19:53:54.374Z,17.30
2022-12-23T19:56:40.734Z,21.50
2022-12-23T19:59:27.423Z,15.50
2022-12-23T20:02:15.500Z,17.40
2022-12-23T20:05:01.744Z,15.60
2022-12-23T20:07:47.888Z,14.30
2022-12-23T20:10:34.122Z,16.20
2022-12-23T20:13:20.348Z,14.60
2022-12-23T20:16:07.096Z,13.20
2022-12-23T20:18:53.567Z,14.80
2022-12-23T20:21:40.176Z,15.60
2022-12-23T20:24:26.732Z,14.70
2022-12-23T20:27:15.739Z,14.40
2022-12-23T20:30:02.577Z,13.90
2022-12-23T20:32:48.947Z,14.10
2022-12-23T20:35:36.332Z,14.90
2022-12-23T20:38:22.938Z,14.70
2022-12-23T20:41:10.980Z,14.30
2022-12-23T20:44:32.485Z,15.80
2022-12-23T20:47:07.070Z,14.40
2022-12-23T20:49:53.564Z,13.60
2022-12-23T20:52:39.932Z,16.00
2022-12-23T20:55:26.230Z,12.70
2022-12-23T20:58:31.275Z,12.60
2022-12-23T21:01:17.770Z,13.70
2022-12-23T21:04:15.948Z,14.60
2022-12-23T21:07:02.315Z,14.00
2022-12-23T21:09:48.448Z,15.10
2022-12-23T21:12:34.676Z,16.30
2022-12-23T21:15:22.824Z,16.00
2022-12-23T21:18:09.174Z,12.90
2022-12-23T21:20:59.927Z,14.00
2022-12-23T21:23:46.709Z,14.20
2022-12-23T21:26:34.161Z,13.80
2022-12-23T21:29:20.667Z,15.70
2022-12-23T21:32:07.038Z,14.10
2022-12-23T21:34:53.640Z,13.40
2022-12-23T21:37:40.104Z,12.70
2022-12-23T21:40:27.174Z,13.30
2022-12-23T21:43:13.654Z,13.80
2022-12-23T21:46:04.568Z,12.50
2022-12-23T21:48:51.020Z,14.10
2022-12-23T21:51:40.684Z,15.70
2022-12-23T21:54:27.461Z,12.90
2022-12-23T21:57:13.959Z,14.50
2022-12-23T22:00:00.350Z,16.40
2022-12-23T22:02:46.999Z,12.20
2022-12-23T22:05:33.190Z,12.60
2022-12-23T22:08:19.734Z,15.30
2022-12-23T22:11:07.591Z,16.80
2022-12-23T22:13:55.134Z,16.20
2022-12-23T22:16:41.615Z,16.80
2022-12-23T22:19:28.018Z,15.80
2022-12-23T22:22:14.411Z,18.00
2022-12-23T22:25:00.564Z,12.80
2022-12-23T22:27:47.177Z,10.70
2022-12-23T22:30:33.265Z,14.80
2022-12-23T22:33:21.169Z,13.80
2022-12-23T22:36:09.413Z,11.20
2022-12-23T22:38:57.407Z,6.90
2022-12-23T22:41:43.918Z,10.60
2022-12-23T22:44:30.160Z,11.90
2022-12-23T22:47:16.333Z,11.20
2022-12-23T22:50:03.047Z,11.60
2022-12-23T22:52:49.313Z,12.40
2022-12-23T22:55:35.311Z,10.30
2022-12-23T22:58:21.752Z,10.00
2022-12-23T23:01:13.065Z,9.30
2022-12-23T23:04:00.818Z,11.40
2022-12-23T23:06:47.186Z,12.40
2022-12-23T23:09:34.090Z,11.50
2022-12-23T23:12:20.605Z,10.90
2022-12-23T23:15:07.725Z,9.70
2022-12-23T23:17:55.362Z,9.30
2022-12-23T23:20:42.039Z,7.30
2022-12-23T23:23:28.340Z,5.80
2022-12-23T23:26:15.107Z,8.80
2022-12-23T23:29:01.543Z,8.40
2022-12-23T23:31:47.940Z,9.30
2022-12-23T23:34:34.718Z,8.30
2022-12-23T23:37:21.447Z,8.30
2022-12-23T23:40:08.245Z,6.40
2022-12-23T23:42:54.847Z,6.80
2022-12-23T23:45:41.420Z,8.60
2022-12-23T23:48:27.609Z,8.10
2022-12-23T23:51:14.035Z,10.60
2022-12-23T23:54:00.652Z,9.70
2022-12-23T23:56:46.810Z,9.70
2022-12-23T23:59:33.253Z,8.00
